createdAt,value
2018-03-30T00:02:26.755Z,6.13
2018-03-30T00:04:54.359Z,6.57
2018-03-30T00:07:21.950Z,7.13
2018-03-30T00:10:00.149Z,7.07
2018-03-30T00:12:28.023Z,7.17
2018-03-30T00:14:55.583Z,6.87
2018-03-30T00:17:23.182Z,6.37
2018-03-30T00:19:50.770Z,7.10
2018-03-30T00:22:18.338Z,6.40
2018-03-30T00:24:45.915Z,6.50
2018-03-30T00:27:15.200Z,6.70
2018-03-30T00:29:42.859Z,6.50
2018-03-30T00:32:10.421Z,6.97
2018-03-30T00:34:38.092Z,7.20
2018-03-30T00:37:05.690Z,7.33
2018-03-30T00:39:33.284Z,6.73
2018-03-30T00:42:01.684Z,6.30
2018-03-30T00:44:29.348Z,7.90
2018-03-30T00:46:56.955Z,7.20
2018-03-30T00:49:25.436Z,7.37
2018-03-30T00:51:53.791Z,7.30
2018-03-30T00:54:21.399Z,7.43
2018-03-30T00:56:49.843Z,7.43
2018-03-30T00:59:17.471Z,7.20
2018-03-30T01:01:45.832Z,8.37
2018-03-30T01:04:13.391Z,7.73
2018-03-30T01:06:40.975Z,8.00
2018-03-30T01:09:08.537Z,7.80
2018-03-30T01:11:36.108Z,7.23
2018-03-30T01:14:03.721Z,7.50
2018-03-30T01:16:32.263Z,7.20
2018-03-30T01:18:59.920Z,7.63
2018-03-30T01:21:27.499Z,7.47
2018-03-30T01:23:55.076Z,8.30
2018-03-30T01:26:22.688Z,8.47
2018-03-30T01:28:50.253Z,7.50
2018-03-30T01:31:18.581Z,7.83
2018-03-30T01:33:46.166Z,8.43
2018-03-30T01:36:13.736Z,8.13
2018-03-30T01:38:41.361Z,8.13
2018-03-30T01:41:08.951Z,8.80
2018-03-30T01:43:38.132Z,8.23
2018-03-30T01:46:05.767Z,8.20
2018-03-30T01:48:34.021Z,8.50
2018-03-30T01:51:02.373Z,8.67
2018-03-30T01:53:29.931Z,8.67
2018-03-30T01:55:57.516Z,8.87
2018-03-30T01:58:25.104Z,8.87
2018-03-30T02:00:52.668Z,8.23
2018-03-30T02:03:20.830Z,7.77
2018-03-30T02:05:48.879Z,7.27
2018-03-30T02:08:17.242Z,10.30
2018-03-30T02:10:44.830Z,10.13
2018-03-30T02:13:12.475Z,23.30
2018-03-30T02:15:40.116Z,17.10
2018-03-30T02:18:07.764Z,12.40
2018-03-30T02:20:36.220Z,12.60
2018-03-30T02:23:03.839Z,11.73
2018-03-30T02:25:32.199Z,10.87
2018-03-30T02:27:59.790Z,10.10
2018-03-30T02:30:27.383Z,9.90
2018-03-30T02:32:54.989Z,10.13
2018-03-30T02:35:22.610Z,10.43
2018-03-30T02:37:50.961Z,10.80
2018-03-30T02:40:18.600Z,10.33
2018-03-30T02:42:46.189Z,9.77
2018-03-30T02:45:13.756Z,9.67
2018-03-30T02:47:41.334Z,9.90
2018-03-30T02:50:08.943Z,9.70
2018-03-30T02:52:36.557Z,9.50
2018-03-30T02:55:04.910Z,10.07
2018-03-30T02:57:32.500Z,10.43
2018-03-30T03:00:00.860Z,9.93
2018-03-30T03:02:28.452Z,10.37
2018-03-30T03:04:56.913Z,10.97
2018-03-30T03:07:24.488Z,10.67
2018-03-30T03:09:52.103Z,10.77
2018-03-30T03:12:20.442Z,10.80
2018-03-30T03:14:48.036Z,11.33
2018-03-30T03:17:16.372Z,11.00
2018-03-30T03:19:44.706Z,10.53
2018-03-30T03:22:12.297Z,10.10
2018-03-30T03:24:40.776Z,10.53
2018-03-30T03:27:08.351Z,11.13
2018-03-30T03:29:35.943Z,10.13
2018-03-30T03:32:03.517Z,10.97
2018-03-30T03:34:31.090Z,10.97
2018-03-30T03:36:58.740Z,13.07
2018-03-30T03:39:26.328Z,11.13
2018-03-30T03:41:53.905Z,10.70
2018-03-30T03:44:21.476Z,11.27
2018-03-30T03:46:49.054Z,11.23
2018-03-30T03:49:16.660Z,10.80
2018-03-30T03:51:44.218Z,11.13
2018-03-30T03:54:12.603Z,11.40
2018-03-30T03:56:40.963Z,11.10
2018-03-30T03:59:08.575Z,10.50
2018-03-30T04:01:36.910Z,11.17
2018-03-30T04:04:04.486Z,11.47
2018-03-30T04:06:32.063Z,11.53
2018-03-30T04:08:59.632Z,11.07
2018-03-30T04:11:27.281Z,11.37
2018-03-30T04:13:54.907Z,12.23
2018-03-30T04:16:22.502Z,12.20
2018-03-30T04:18:50.830Z,12.17
2018-03-30T04:21:18.395Z,13.47
2018-03-30T04:23:45.987Z,13.47
2018-03-30T04:26:13.559Z,12.03
2018-03-30T04:28:41.163Z,12.97
2018-03-30T04:31:09.529Z,12.47
2018-03-30T04:33:37.118Z,12.47
2018-03-30T04:36:04.737Z,12.17
2018-03-30T04:38:32.316Z,13.33
2018-03-30T04:40:59.922Z,11.83
2018-03-30T04:43:27.511Z,12.27
2018-03-30T04:45:55.876Z,12.70
2018-03-30T04:48:23.460Z,13.20
2018-03-30T04:50:51.058Z,12.77
2018-03-30T04:53:19.483Z,12.47
2018-03-30T04:55:47.141Z,12.37
2018-03-30T04:58:14.722Z,11.50
2018-03-30T05:00:42.327Z,12.03
2018-03-30T05:03:09.928Z,12.27
2018-03-30T05:05:37.549Z,12.27
2018-03-30T05:08:05.131Z,10.90
2018-03-30T05:10:32.765Z,11.57
2018-03-30T05:13:01.179Z,13.20
2018-03-30T05:15:28.805Z,11.73
2018-03-30T05:17:56.424Z,11.90
2018-03-30T05:20:24.108Z,12.63
2018-03-30T05:22:51.704Z,12.40
2018-03-30T05:25:19.309Z,12.60
2018-03-30T05:27:46.940Z,13.07
2018-03-30T05:30:14.611Z,13.17
2018-03-30T05:32:42.265Z,14.83
2018-03-30T05:35:09.910Z,14.87
2018-03-30T05:37:38.567Z,15.37
2018-03-30T05:40:06.284Z,15.50
2018-03-30T05:42:33.855Z,16.60
2018-03-30T05:45:02.236Z,15.23
2018-03-30T05:47:29.925Z,15.67
2018-03-30T05:49:58.380Z,18.53
2018-03-30T05:52:26.087Z,16.33
2018-03-30T05:54:54.491Z,19.63
2018-03-30T05:57:22.096Z,20.10
2018-03-30T05:59:49.722Z,21.33
2018-03-30T06:02:18.127Z,21.27
2018-03-30T06:04:45.752Z,21.27
2018-03-30T06:07:13.540Z,27.77
2018-03-30T06:09:41.182Z,27.37
2018-03-30T06:12:08.780Z,29.57
2018-03-30T06:14:36.424Z,27.70
2018-03-30T06:17:04.104Z,29.47
2018-03-30T06:19:31.790Z,27.10
2018-03-30T06:21:59.391Z,26.23
2018-03-30T06:24:26.988Z,26.23
2018-03-30T06:26:55.358Z,30.37
2018-03-30T06:29:23.473Z,30.13
2018-03-30T06:31:51.155Z,32.00
2018-03-30T06:34:18.776Z,34.10
2018-03-30T06:36:46.372Z,49.23
2018-03-30T06:39:13.964Z,44.57
2018-03-30T06:41:41.574Z,32.00
2018-03-30T06:44:10.834Z,48.03
2018-03-30T06:46:39.499Z,49.23
2018-03-30T06:49:08.158Z,48.23
2018-03-30T06:51:35.772Z,26.43
2018-03-30T06:54:03.362Z,24.30
2018-03-30T06:56:30.990Z,23.63
2018-03-30T06:58:58.647Z,23.03
2018-03-30T07:01:26.330Z,28.73
2018-03-30T07:03:53.946Z,26.77
2018-03-30T07:06:21.631Z,25.33
2018-03-30T07:08:49.222Z,24.23
2018-03-30T07:11:17.659Z,19.07
2018-03-30T07:13:45.251Z,18.47
2018-03-30T07:16:12.903Z,18.10
2018-03-30T07:18:40.547Z,18.10
2018-03-30T07:21:08.216Z,17.67
2018-03-30T07:23:35.787Z,21.93
2018-03-30T07:26:03.491Z,21.33
2018-03-30T07:28:31.075Z,21.50
2018-03-30T07:31:00.302Z,20.20
2018-03-30T07:33:27.907Z,21.60
2018-03-30T07:35:57.123Z,18.43
2018-03-30T07:38:24.711Z,17.33
2018-03-30T07:40:52.393Z,16.60
2018-03-30T07:43:20.019Z,23.57
2018-03-30T07:45:47.620Z,18.93
2018-03-30T07:48:15.215Z,15.30
2018-03-30T07:50:42.889Z,12.70
2018-03-30T07:53:10.487Z,13.73
2018-03-30T07:55:38.841Z,12.93
2018-03-30T07:58:06.965Z,12.67
2018-03-30T08:00:35.350Z,11.73
2018-03-30T08:03:02.949Z,11.67
2018-03-30T08:05:30.601Z,11.57
2018-03-30T08:07:58.227Z,11.13
2018-03-30T08:11:46.740Z,12.50
2018-03-30T08:14:16.309Z,11.53
2018-03-30T08:16:44.666Z,9.87
2018-03-30T08:19:12.811Z,9.13
2018-03-30T08:21:40.446Z,10.30
2018-03-30T08:24:08.831Z,8.93
2018-03-30T08:26:38.073Z,9.40
2018-03-30T08:29:05.992Z,9.60
2018-03-30T08:31:34.460Z,9.20
2018-03-30T08:34:02.784Z,8.97
2018-03-30T08:36:30.384Z,8.77
2018-03-30T08:38:57.976Z,9.43
2018-03-30T08:41:26.141Z,8.63
2018-03-30T08:43:53.742Z,8.53
2018-03-30T08:46:21.328Z,8.93
2018-03-30T08:48:48.898Z,8.70
2018-03-30T08:51:16.490Z,9.77
2018-03-30T08:53:44.082Z,8.00
2018-03-30T08:56:12.687Z,7.73
2018-03-30T08:58:40.255Z,8.10
2018-03-30T09:01:08.516Z,8.80
2018-03-30T09:03:36.119Z,8.00
2018-03-30T09:06:04.499Z,7.87
2018-03-30T09:08:32.943Z,8.40
2018-03-30T09:11:01.339Z,8.57
2018-03-30T09:13:29.836Z,8.13
2018-03-30T09:15:57.516Z,8.67
2018-03-30T09:18:25.947Z,8.10
2018-03-30T09:20:53.592Z,8.00
2018-03-30T09:23:21.553Z,8.13
2018-03-30T09:25:50.251Z,7.20
2018-03-30T09:28:17.946Z,7.77
2018-03-30T09:30:46.790Z,7.30
2018-03-30T09:33:20.992Z,8.03
2018-03-30T09:35:48.658Z,8.33
2018-03-30T09:38:17.116Z,7.80
2018-03-30T09:40:45.762Z,7.93
2018-03-30T09:43:13.582Z,7.60
2018-03-30T09:45:42.266Z,7.63
2018-03-30T09:48:10.788Z,6.97
2018-03-30T09:50:39.431Z,7.70
2018-03-30T09:53:07.059Z,6.77
2018-03-30T09:55:34.660Z,6.77
2018-03-30T09:58:02.272Z,6.67
2018-03-30T10:00:29.840Z,6.67
2018-03-30T10:02:57.433Z,6.67
2018-03-30T10:05:25.794Z,7.17
2018-03-30T10:07:53.423Z,6.53
2018-03-30T10:10:21.039Z,7.07
2018-03-30T10:12:49.300Z,7.50
2018-03-30T10:15:16.929Z,7.33
2018-03-30T10:17:44.600Z,6.77
2018-03-30T10:20:12.988Z,6.47
2018-03-30T10:22:41.417Z,7.07
2018-03-30T10:25:09.022Z,7.10
2018-03-30T10:27:36.660Z,6.90
2018-03-30T10:30:04.275Z,6.60
2018-03-30T10:32:32.639Z,6.60
2018-03-30T10:35:00.212Z,7.23
2018-03-30T10:37:27.864Z,6.67
2018-03-30T10:39:56.124Z,7.13
2018-03-30T10:42:24.488Z,5.70
2018-03-30T10:44:52.057Z,6.10
2018-03-30T10:47:19.689Z,6.93
2018-03-30T10:49:47.320Z,6.27
2018-03-30T10:52:14.978Z,6.87
2018-03-30T10:54:42.592Z,6.67
2018-03-30T10:57:10.954Z,6.53
2018-03-30T10:59:39.719Z,7.17
2018-03-30T11:02:07.570Z,6.93
2018-03-30T11:04:35.155Z,7.00
2018-03-30T11:07:02.858Z,6.77
2018-03-30T11:09:31.280Z,6.90
2018-03-30T11:11:59.000Z,6.77
2018-03-30T11:14:26.620Z,6.87
2018-03-30T11:16:54.207Z,6.40
2018-03-30T11:19:21.814Z,6.37
2018-03-30T11:21:49.400Z,5.77
2018-03-30T11:24:16.979Z,5.80
2018-03-30T11:26:44.593Z,6.13
2018-03-30T11:29:13.044Z,5.80
2018-03-30T11:31:40.632Z,6.00
2018-03-30T11:34:08.193Z,5.80
2018-03-30T11:36:35.865Z,6.10
2018-03-30T11:39:03.455Z,6.00
2018-03-30T11:41:31.060Z,6.27
2018-03-30T11:43:59.451Z,6.63
2018-03-30T11:46:27.837Z,6.90
2018-03-30T11:48:56.269Z,5.97
2018-03-30T11:51:23.890Z,5.90
2018-03-30T11:53:51.492Z,6.00
2018-03-30T11:56:19.083Z,6.30
2018-03-30T11:58:46.729Z,5.93
2018-03-30T12:01:15.082Z,5.97
2018-03-30T12:03:42.697Z,5.90
2018-03-30T12:06:11.075Z,5.93
2018-03-30T12:08:39.590Z,5.80
2018-03-30T12:11:07.199Z,5.67
2018-03-30T12:13:34.799Z,5.20
2018-03-30T12:16:02.478Z,5.33
2018-03-30T12:18:30.920Z,5.00
2018-03-30T12:20:58.517Z,5.77
2018-03-30T12:23:26.236Z,5.03
2018-03-30T12:25:56.766Z,5.40
2018-03-30T12:28:25.495Z,5.50
2018-03-30T12:30:53.065Z,4.87
2018-03-30T12:33:20.659Z,5.47
2018-03-30T12:35:48.998Z,5.33
2018-03-30T12:38:16.599Z,5.80
2018-03-30T12:40:44.964Z,11.00
2018-03-30T12:43:12.553Z,6.37
2018-03-30T12:45:41.255Z,5.53
2018-03-30T12:48:08.875Z,6.20
2018-03-30T12:50:36.478Z,5.73
2018-03-30T12:53:04.128Z,6.03
2018-03-30T12:55:31.731Z,5.97
2018-03-30T12:57:59.367Z,5.43
2018-03-30T13:00:26.946Z,5.73
2018-03-30T13:02:54.533Z,5.63
2018-03-30T13:05:22.167Z,5.30
2018-03-30T13:07:50.619Z,5.23
2018-03-30T13:10:18.268Z,5.47
2018-03-30T13:12:45.872Z,5.60
2018-03-30T13:15:14.109Z,5.10
2018-03-30T13:17:41.695Z,5.90
2018-03-30T13:20:09.323Z,5.40
2018-03-30T13:22:36.914Z,6.27
2018-03-30T13:25:05.315Z,5.97
2018-03-30T13:27:32.873Z,6.20
2018-03-30T13:30:01.299Z,5.53
2018-03-30T13:32:28.900Z,6.33
2018-03-30T13:34:56.494Z,6.13
2018-03-30T13:37:24.118Z,6.20
2018-03-30T13:39:51.768Z,7.27
2018-03-30T13:42:19.381Z,6.70
2018-03-30T13:44:46.975Z,6.53
2018-03-30T13:47:14.636Z,6.33
2018-03-30T13:49:42.292Z,6.90
2018-03-30T13:52:11.660Z,6.50
2018-03-30T13:54:40.088Z,7.37
2018-03-30T13:57:09.034Z,6.80
2018-03-30T13:59:39.480Z,6.10
2018-03-30T14:02:08.716Z,6.40
2018-03-30T14:04:44.699Z,6.53
2018-03-30T14:07:29.012Z,8.10
2018-03-30T14:10:01.122Z,7.67
2018-03-30T14:12:31.250Z,8.40
2018-03-30T14:14:58.891Z,8.00
2018-03-30T14:20:35.495Z,7.13
2018-03-30T14:23:04.031Z,7.17
2018-03-30T14:25:37.083Z,6.20
2018-03-30T14:28:05.484Z,5.87
2018-03-30T14:30:38.834Z,5.83
2018-03-30T14:33:06.430Z,6.30
2018-03-30T14:38:58.373Z,6.03
2018-03-30T14:41:26.435Z,5.47
2018-03-30T14:43:56.136Z,4.63
2018-03-30T14:46:39.903Z,5.27
2018-03-30T14:49:13.212Z,4.53
2018-03-30T14:51:43.593Z,4.57
2018-03-30T14:57:10.823Z,4.40
2018-03-30T14:59:40.568Z,4.30
2018-03-30T15:02:16.820Z,4.17
2018-03-30T15:04:56.879Z,4.10
2018-03-30T15:07:38.890Z,4.10
2018-03-30T15:10:13.741Z,4.07
2018-03-30T15:12:52.656Z,3.60
2018-03-30T15:15:27.784Z,3.40
2018-03-30T15:18:01.976Z,3.13
2018-03-30T15:23:39.285Z,3.30
2018-03-30T15:26:14.743Z,3.23
2018-03-30T15:28:44.791Z,3.80
2018-03-30T15:31:15.044Z,3.90
2018-03-30T15:33:46.244Z,3.33
2018-03-30T15:36:20.406Z,3.07
2018-03-30T15:38:47.985Z,3.13
2018-03-30T15:41:15.635Z,3.20
2018-03-30T15:43:46.400Z,3.60
2018-03-30T15:46:34.678Z,3.40
2018-03-30T15:49:02.263Z,3.93
2018-03-30T15:51:38.695Z,3.60
2018-03-30T15:54:06.560Z,3.00
2018-03-30T15:56:34.933Z,3.63
2018-03-30T15:59:02.507Z,3.00
2018-03-30T16:01:30.105Z,3.20
2018-03-30T16:03:58.442Z,3.10
2018-03-30T16:06:26.075Z,3.00
2018-03-30T16:08:54.413Z,3.80
2018-03-30T16:11:38.953Z,5.03
2018-03-30T16:14:06.576Z,3.83
2018-03-30T16:16:34.146Z,4.53
2018-03-30T16:19:01.377Z,4.20
2018-03-30T16:21:28.509Z,4.30
2018-03-30T16:23:55.615Z,4.70
2018-03-30T16:26:22.710Z,4.43
2018-03-30T16:28:49.798Z,4.50
2018-03-30T16:31:17.879Z,4.53
2018-03-30T16:33:45.006Z,4.33
2018-03-30T16:36:12.152Z,4.53
2018-03-30T16:38:40.096Z,4.80
2018-03-30T16:41:07.189Z,4.80
2018-03-30T16:43:34.356Z,5.23
2018-03-30T16:46:01.509Z,5.43
2018-03-30T16:48:28.959Z,4.80
2018-03-30T16:50:56.061Z,5.20
2018-03-30T16:53:23.226Z,6.20
2018-03-30T16:55:50.792Z,6.03
2018-03-30T16:58:18.024Z,6.57
2018-03-30T17:00:45.552Z,5.40
2018-03-30T17:03:12.838Z,5.47
2018-03-30T17:05:40.746Z,5.30
2018-03-30T17:08:07.862Z,5.70
2018-03-30T17:10:35.859Z,4.97
2018-03-30T17:13:03.720Z,6.20
2018-03-30T17:15:30.828Z,5.33
2018-03-30T17:17:57.943Z,5.70
2018-03-30T17:20:25.806Z,5.90
2018-03-30T17:22:53.077Z,7.27
2018-03-30T17:25:21.123Z,9.90
2018-03-30T17:27:48.246Z,6.80
2018-03-30T17:30:16.930Z,6.13
2018-03-30T17:32:44.827Z,5.30
2018-03-30T17:35:13.110Z,5.83
2018-03-30T17:37:40.959Z,5.93
2018-03-30T17:40:08.057Z,6.50
2018-03-30T17:42:35.970Z,5.77
2018-03-30T17:45:03.118Z,6.17
2018-03-30T17:47:30.212Z,6.07
2018-03-30T17:49:58.189Z,6.10
2018-03-30T17:52:25.276Z,6.30
2018-03-30T17:54:52.462Z,6.13
2018-03-30T17:57:20.331Z,6.37
2018-03-30T17:59:48.478Z,7.20
2018-03-30T18:02:15.600Z,7.13
2018-03-30T18:04:42.822Z,7.70
2018-03-30T18:07:10.248Z,8.20
2018-03-30T18:09:38.083Z,7.47
2018-03-30T18:12:05.981Z,7.50
2018-03-30T18:14:34.084Z,7.50
2018-03-30T18:17:01.198Z,6.60
2018-03-30T18:19:28.301Z,6.97
2018-03-30T18:21:55.399Z,6.87
2018-03-30T18:24:22.730Z,6.67
2018-03-30T18:26:49.806Z,6.63
2018-03-30T18:29:16.902Z,7.53
2018-03-30T18:31:46.430Z,6.33
2018-03-30T18:34:13.573Z,6.90
2018-03-30T19:58:37.427Z,5.63
2018-03-30T20:01:04.606Z,5.80
2018-03-30T20:03:32.474Z,5.83
2018-03-30T20:05:59.544Z,6.40
2018-03-30T20:08:27.411Z,5.90
2018-03-30T20:10:54.503Z,6.10
2018-03-30T20:13:21.582Z,5.40
2018-03-30T20:15:49.147Z,5.60
2018-03-30T20:18:16.252Z,6.00
2018-03-30T20:20:43.314Z,5.87
2018-03-30T20:23:11.237Z,5.97
2018-03-30T20:25:39.480Z,6.40
2018-03-30T20:28:06.565Z,6.43
2018-03-30T20:30:34.438Z,5.97
2018-03-30T20:33:02.401Z,6.20
2018-03-30T20:35:30.280Z,6.87
2018-03-30T20:37:57.727Z,7.97
2018-03-30T20:40:25.655Z,11.20
2018-03-30T20:42:53.521Z,9.77
2018-03-30T20:45:20.614Z,8.70
2018-03-30T20:47:47.713Z,9.33
2018-03-30T20:50:14.783Z,9.77
2018-03-30T20:52:41.879Z,8.73
2018-03-30T20:55:09.770Z,8.57
2018-03-30T20:57:36.924Z,8.03
2018-03-30T21:00:04.029Z,8.43
2018-03-30T21:02:31.128Z,8.20
2018-03-30T21:04:58.203Z,9.17
2018-03-30T21:07:26.056Z,8.63
2018-03-30T21:09:53.153Z,8.70
2018-03-30T21:12:20.250Z,8.33
2018-03-30T21:14:47.387Z,8.40
2018-03-30T21:17:14.478Z,8.57
2018-03-30T21:19:41.627Z,7.83
2018-03-30T21:22:08.704Z,8.10
2018-03-30T21:24:35.798Z,8.20
2018-03-30T21:27:03.690Z,7.67
2018-03-30T21:29:30.801Z,7.53
2018-03-30T21:31:57.901Z,8.30
2018-03-30T21:34:25.766Z,8.90
2018-03-30T21:36:52.844Z,8.27
2018-03-30T21:39:20.727Z,8.27
2018-03-30T21:41:48.581Z,8.23
2018-03-30T21:44:15.648Z,8.60
2018-03-30T21:46:42.762Z,8.77
2018-03-30T21:49:09.880Z,8.93
2018-03-30T21:51:37.772Z,10.00
2018-03-30T21:54:05.623Z,9.93
2018-03-30T21:56:32.721Z,9.00
2018-03-30T21:58:59.814Z,8.67
2018-03-30T22:01:26.915Z,8.10
2018-03-30T22:03:54.014Z,8.40
2018-03-30T22:06:21.784Z,8.20
2018-03-30T22:08:48.880Z,8.47
2018-03-30T22:11:16.014Z,7.27
2018-03-30T22:13:43.156Z,7.20
2018-03-30T22:16:11.020Z,7.63
2018-03-30T22:18:40.412Z,7.17
2018-03-30T22:21:07.504Z,7.87
2018-03-30T22:23:35.359Z,7.43
2018-03-30T22:26:02.444Z,7.03
2018-03-30T22:28:30.315Z,6.83
2018-03-30T22:30:58.247Z,6.53
2018-03-30T22:33:26.436Z,7.30
2018-03-30T22:35:53.529Z,7.10
2018-03-30T22:38:21.161Z,7.77
2018-03-30T22:40:48.463Z,7.70
2018-03-30T22:43:15.935Z,7.23
2018-03-30T22:45:44.423Z,7.60
2018-03-30T22:48:11.883Z,6.77
2018-03-30T22:50:40.662Z,6.23
2018-03-30T22:53:07.813Z,7.20
2018-03-30T22:55:35.356Z,7.10
2018-03-30T22:58:02.719Z,7.00
2018-03-30T23:00:29.932Z,7.40
2018-03-30T23:02:57.949Z,6.83
2018-03-30T23:05:25.055Z,7.50
2018-03-30T23:07:52.167Z,7.07
2018-03-30T23:10:20.241Z,7.17
2018-03-30T23:12:48.507Z,6.87
2018-03-30T23:15:15.908Z,6.50
2018-03-30T23:17:43.558Z,7.10
2018-03-30T23:20:10.829Z,6.27
2018-03-30T23:22:38.041Z,6.33
2018-03-30T23:25:06.267Z,6.33
2018-03-30T23:27:33.412Z,6.40
2018-03-30T23:30:00.864Z,6.13
2018-03-30T23:32:28.575Z,5.53
2018-03-30T23:34:58.032Z,6.30
2018-03-30T23:37:25.553Z,5.93
2018-03-30T23:39:53.285Z,6.20
2018-03-30T23:42:21.301Z,6.00
2018-03-30T23:44:51.315Z,6.00
2018-03-30T23:47:19.084Z,5.93
2018-03-30T23:49:46.893Z,5.77
2018-03-30T23:52:15.524Z,6.93
2018-03-30T23:54:43.581Z,7.07
2018-03-30T23:57:12.344Z,7.53
2018-03-30T23:59:41.147Z,7.77
